Time;durP1;ratioP1;P1;durP2;ratioP2;P2;SDS_P1;SDS_P2;PMS_P1;PMS_P2;Temp;Humidity;BMP_temperature;BMP_pressure;BME280_temperature;BME280_humidity;BME280_pressure;Samples;Min_cycle;Max_cycle;Signal;HPM_P1;HPM_P2
2024/01/08 00:01:50;;;;;;;5.22;2.03;;;;;;;;;;4970108;28;20054;-69
2024/01/08 00:04:17;;;;;;;7.07;2.28;;;;;;;;;;4968509;28;20046;-69
2024/01/08 00:06:44;;;;;;;4.13;2.08;;;;;;;;;;4952666;28;20057;-69
2024/01/08 00:09:12;;;;;;;3.85;2.03;;;;;;;;;;4969608;28;20055;-69
2024/01/08 00:11:40;;;;;;;3.92;2.33;;;;;;;;;;4964125;28;20046;-69
2024/01/08 00:14:08;;;;;;;4.90;2.58;;;;;;;;;;4969891;28;20054;-69
2024/01/08 00:16:35;;;;;;;6.13;2.70;;;;;;;;;;4970547;28;20074;-69
2024/01/08 00:19:02;;;;;;;5.60;2.55;;;;;;;;;;4968980;28;20542;-69
2024/01/08 00:21:29;;;;;;;4.40;2.65;;;;;;;;;;4962038;28;20053;-69
2024/01/08 00:23:57;;;;;;;5.00;2.63;;;;;;;;;;4969726;28;20057;-69
2024/01/08 00:26:24;;;;;;;7.15;2.60;;;;;;;;;;4969026;28;20042;-69
2024/01/08 00:28:53;;;;;;;7.63;3.15;;;;;;;;;;4964430;28;20105;-69
2024/01/08 00:31:20;;;;;;;8.25;2.78;;;;;;;;;;4966774;28;20051;-69
2024/01/08 00:33:48;;;;;;;4.20;2.33;;;;;;;;;;4965912;28;20520;-69
2024/01/08 00:36:15;;;;;;;7.32;3.00;;;;;;;;;;4969241;28;20051;-69
2024/01/08 00:38:42;;;;;;;6.88;2.85;;;;;;;;;;4969286;28;20486;-69
2024/01/08 00:41:09;;;;;;;5.72;2.97;;;;;;;;;;4952606;28;20054;-69
2024/01/08 00:43:37;;;;;;;6.47;2.60;;;;;;;;;;4969277;28;20054;-69
2024/01/08 00:46:06;;;;;;;8.52;2.50;;;;;;;;;;4968578;28;20046;-69
2024/01/08 00:48:33;;;;;;;6.65;2.80;;;;;;;;;;4963733;28;20061;-69
2024/01/08 00:51:01;;;;;;;5.90;3.20;;;;;;;;;;4967097;28;20051;-69
2024/01/08 00:53:28;;;;;;;9.25;3.65;;;;;;;;;;4970364;28;20486;-69
2024/01/08 00:55:55;;;;;;;7.13;3.30;;;;;;;;;;4966538;28;20074;-69
2024/01/08 00:58:23;;;;;;;6.60;3.08;;;;;;;;;;4968184;28;20051;-69
2024/01/08 01:00:50;;;;;;;5.93;3.00;;;;;;;;;;4950133;28;20058;-69
2024/01/08 01:03:18;;;;;;;6.90;3.40;;;;;;;;;;4968068;28;20442;-69
2024/01/08 01:05:46;;;;;;;7.43;3.40;;;;;;;;;;4947129;28;20054;-69
2024/01/08 01:08:13;;;;;;;4.60;2.95;;;;;;;;;;4968032;28;20058;-69
2024/01/08 01:10:43;;;;;;;7.15;3.35;;;;;;;;;;4953080;28;20062;-69
2024/01/08 01:13:10;;;;;;;7.07;3.00;;;;;;;;;;4969061;28;20050;-69
2024/01/08 01:15:38;;;;;;;11.95;2.95;;;;;;;;;;4969800;28;20043;-69
2024/01/08 01:18:05;;;;;;;8.63;2.70;;;;;;;;;;4949979;28;20546;-69
2024/01/08 01:20:34;;;;;;;7.45;2.67;;;;;;;;;;4967572;28;20063;-69
2024/01/08 01:23:01;;;;;;;5.95;2.63;;;;;;;;;;4961061;28;20049;-69
2024/01/08 01:25:29;;;;;;;9.13;2.47;;;;;;;;;;4951371;28;20050;-69
2024/01/08 01:27:56;;;;;;;5.97;2.33;;;;;;;;;;4951704;28;20058;-70
2024/01/08 01:30:23;;;;;;;9.20;3.45;;;;;;;;;;4962986;28;20051;-69
2024/01/08 01:32:50;;;;;;;6.60;2.70;;;;;;;;;;4951216;28;20061;-69
2024/01/08 01:35:18;;;;;;;4.85;2.10;;;;;;;;;;4969014;28;20065;-69
2024/01/08 01:37:46;;;;;;;4.72;2.20;;;;;;;;;;4968636;28;20050;-69
2024/01/08 01:40:14;;;;;;;5.22;2.50;;;;;;;;;;4969004;28;20055;-69
2024/01/08 01:42:41;;;;;;;5.70;2.53;;;;;;;;;;4969030;28;20070;-69
2024/01/08 01:45:09;;;;;;;6.22;2.30;;;;;;;;;;4966916;28;20380;-69
2024/01/08 01:47:36;;;;;;;4.78;2.50;;;;;;;;;;4968667;28;20050;-69
2024/01/08 01:50:04;;;;;;;6.57;2.28;;;;;;;;;;4968979;28;20050;-69
2024/01/08 01:52:31;;;;;;;7.30;2.53;;;;;;;;;;4949737;28;20059;-69
2024/01/08 01:55:00;;;;;;;5.78;2.55;;;;;;;;;;4967431;28;20434;-69
2024/01/08 01:57:27;;;;;;;7.57;2.47;;;;;;;;;;4972924;28;20506;-69
2024/01/08 01:59:55;;;;;;;6.63;2.35;;;;;;;;;;4970145;28;20057;-69
2024/01/08 02:02:27;;;;;;;4.60;2.17;;;;;;;;;;4972519;28;20055;-69
2024/01/08 02:04:55;;;;;;;6.07;2.20;;;;;;;;;;4969894;28;20050;-69
2024/01/08 02:07:22;;;;;;;8.45;2.20;;;;;;;;;;4968873;28;20043;-69
2024/01/08 02:09:49;;;;;;;6.22;2.63;;;;;;;;;;4954841;28;20054;-69
2024/01/08 02:12:20;;;;;;;5.32;2.30;;;;;;;;;;4975037;28;20082;-69
2024/01/08 02:14:47;;;;;;;6.13;2.45;;;;;;;;;;4966102;28;20059;-69
2024/01/08 02:17:15;;;;;;;8.65;2.60;;;;;;;;;;4967495;28;20047;-69
2024/01/08 02:19:42;;;;;;;5.47;2.13;;;;;;;;;;4968763;28;20057;-69
2024/01/08 02:22:09;;;;;;;7.25;2.13;;;;;;;;;;4966638;28;20063;-69
2024/01/08 02:24:38;;;;;;;4.50;2.33;;;;;;;;;;4972307;28;20050;-69
2024/01/08 02:27:05;;;;;;;4.97;2.20;;;;;;;;;;4971717;28;20053;-69
2024/01/08 02:29:32;;;;;;;7.93;2.60;;;;;;;;;;4970271;28;20069;-69
2024/01/08 02:32:00;;;;;;;5.28;2.47;;;;;;;;;;4969300;28;20047;-69
2024/01/08 02:34:27;;;;;;;9.45;2.75;;;;;;;;;;4949212;28;20061;-69
2024/01/08 02:36:55;;;;;;;6.55;2.88;;;;;;;;;;4968840;28;20043;-69
2024/01/08 02:39:22;;;;;;;5.95;2.85;;;;;;;;;;4970115;28;20058;-69
2024/01/08 02:41:51;;;;;;;6.50;2.97;;;;;;;;;;4969111;28;20047;-69
2024/01/08 02:44:18;;;;;;;8.30;2.85;;;;;;;;;;4971238;28;20525;-69
2024/01/08 02:46:45;;;;;;;5.70;2.63;;;;;;;;;;4971404;28;20050;-69
2024/01/08 02:49:12;;;;;;;7.97;3.15;;;;;;;;;;4954704;28;20055;-69
2024/01/08 02:51:40;;;;;;;5.55;2.50;;;;;;;;;;4971893;28;20166;-69
2024/01/08 02:54:07;;;;;;;6.10;3.08;;;;;;;;;;4970278;28;20070;-69
2024/01/08 02:56:34;;;;;;;6.10;2.47;;;;;;;;;;4963229;28;20050;-69
2024/01/08 02:59:06;;;;;;;6.22;2.80;;;;;;;;;;4951645;28;20050;-69
2024/01/08 03:01:33;;;;;;;6.15;2.85;;;;;;;;;;4968344;28;20078;-69
2024/01/08 03:04:01;;;;;;;10.18;3.15;;;;;;;;;;4958455;28;20537;-69
2024/01/08 03:06:28;;;;;;;5.70;2.75;;;;;;;;;;4956236;28;20043;-69
2024/01/08 03:08:55;;;;;;;6.32;2.80;;;;;;;;;;4968040;28;20097;-69
2024/01/08 03:11:23;;;;;;;5.82;2.58;;;;;;;;;;4971658;28;20050;-69
2024/01/08 03:13:50;;;;;;;5.43;2.67;;;;;;;;;;4968619;28;20047;-69
2024/01/08 03:16:19;;;;;;;7.45;2.75;;;;;;;;;;4971130;28;20070;-69
2024/01/08 03:18:47;;;;;;;6.28;2.97;;;;;;;;;;4970628;28;20047;-69
2024/01/08 03:21:13;;;;;;;7.10;2.90;;;;;;;;;;4967493;28;20380;-69
2024/01/08 03:23:40;;;;;;;8.75;3.15;;;;;;;;;;4969436;28;20129;-69
2024/01/08 03:26:08;;;;;;;9.93;3.55;;;;;;;;;;4970294;28;20078;-69
2024/01/08 03:28:35;;;;;;;8.95;3.03;;;;;;;;;;4953316;28;20549;-69
2024/01/08 03:31:02;;;;;;;5.03;2.85;;;;;;;;;;4964227;28;20046;-69
2024/01/08 03:33:31;;;;;;;6.70;2.80;;;;;;;;;;4965224;28;20050;-69
2024/01/08 03:35:58;;;;;;;7.00;3.33;;;;;;;;;;4962490;28;20047;-69
2024/01/08 03:38:26;;;;;;;7.05;3.10;;;;;;;;;;4965306;28;20383;-69
2024/01/08 03:40:53;;;;;;;6.00;3.08;;;;;;;;;;4944259;28;20059;-69
2024/01/08 03:43:21;;;;;;;8.60;3.20;;;;;;;;;;4969203;28;20062;-69
2024/01/08 03:45:48;;;;;;;12.57;3.75;;;;;;;;;;4972820;28;20138;-69
2024/01/08 03:48:15;;;;;;;7.18;3.47;;;;;;;;;;4967465;28;20054;-69
2024/01/08 03:50:44;;;;;;;5.88;3.40;;;;;;;;;;4967494;28;20039;-69
2024/01/08 03:53:11;;;;;;;5.97;3.15;;;;;;;;;;4967323;28;20073;-69
2024/01/08 03:55:38;;;;;;;5.78;3.30;;;;;;;;;;4970213;28;20050;-69
2024/01/08 03:58:06;;;;;;;5.20;2.83;;;;;;;;;;4968710;28;20050;-69
2024/01/08 04:00:33;;;;;;;7.88;3.30;;;;;;;;;;4968219;28;20133;-69
2024/01/08 04:03:00;;;;;;;6.72;3.22;;;;;;;;;;4969171;28;20058;-69
2024/01/08 04:05:28;;;;;;;7.82;3.00;;;;;;;;;;4968747;28;20055;-69
2024/01/08 04:07:56;;;;;;;5.60;3.03;;;;;;;;;;4969119;28;20039;-69
2024/01/08 04:10:24;;;;;;;7.57;3.15;;;;;;;;;;4951466;28;20409;-69
2024/01/08 04:12:51;;;;;;;5.30;2.90;;;;;;;;;;4948019;28;20407;-69
2024/01/08 04:15:18;;;;;;;7.97;3.08;;;;;;;;;;4969895;28;20575;-69
2024/01/08 04:17:45;;;;;;;8.32;3.30;;;;;;;;;;4969623;28;20058;-69
2024/01/08 04:20:13;;;;;;;7.55;3.42;;;;;;;;;;4969253;28;20053;-69
2024/01/08 04:22:40;;;;;;;7.80;3.60;;;;;;;;;;4953469;28;20053;-69
2024/01/08 04:25:09;;;;;;;5.70;3.25;;;;;;;;;;4968900;28;20060;-69
2024/01/08 04:27:36;;;;;;;5.60;3.13;;;;;;;;;;4969723;28;20126;-69
2024/01/08 04:30:04;;;;;;;8.40;3.72;;;;;;;;;;4951338;28;20058;-69
2024/01/08 04:32:31;;;;;;;7.85;3.45;;;;;;;;;;4952285;28;20138;-69
2024/01/08 04:34:58;;;;;;;8.75;3.47;;;;;;;;;;4967195;28;20421;-69
2024/01/08 04:37:26;;;;;;;8.25;3.45;;;;;;;;;;4968769;28;20051;-69
2024/01/08 04:39:54;;;;;;;7.72;3.85;;;;;;;;;;4949402;28;20051;-69
2024/01/08 04:42:22;;;;;;;6.60;3.53;;;;;;;;;;4969732;28;20686;-69
2024/01/08 04:44:49;;;;;;;6.72;3.45;;;;;;;;;;4952501;28;20137;-69
2024/01/08 04:47:17;;;;;;;7.60;3.55;;;;;;;;;;4966888;28;20058;-69
2024/01/08 04:49:44;;;;;;;11.18;3.90;;;;;;;;;;4969927;28;20076;-69
2024/01/08 04:52:11;;;;;;;8.50;4.03;;;;;;;;;;4953249;28;20047;-69
2024/01/08 04:54:38;;;;;;;10.43;5.18;;;;;;;;;;4968458;28;20054;-69
2024/01/08 04:57:06;;;;;;;11.70;5.57;;;;;;;;;;4969570;28;20050;-69
2024/01/08 04:59:34;;;;;;;9.32;4.15;;;;;;;;;;4950930;28;20543;-69
2024/01/08 05:02:01;;;;;;;8.18;3.33;;;;;;;;;;4969331;28;20410;-69
2024/01/08 05:04:29;;;;;;;14.75;3.22;;;;;;;;;;4967196;28;20055;-69
2024/01/08 05:06:56;;;;;;;9.75;3.63;;;;;;;;;;4969910;28;20051;-69
2024/01/08 05:09:23;;;;;;;8.80;3.15;;;;;;;;;;4969160;28;20089;-69
2024/01/08 05:11:50;;;;;;;5.25;1.83;;;;;;;;;;4948297;28;20081;-69
2024/01/08 05:14:18;;;;;;;10.15;1.70;;;;;;;;;;4968643;28;20054;-69
2024/01/08 05:16:46;;;;;;;7.40;1.48;;;;;;;;;;4969566;28;20047;-70
2024/01/08 05:19:14;;;;;;;5.38;1.42;;;;;;;;;;4968844;28;20130;-69
2024/01/08 05:21:41;;;;;;;3.58;1.75;;;;;;;;;;4967813;28;20485;-69
2024/01/08 05:24:08;;;;;;;6.72;1.60;;;;;;;;;;4965252;28;20149;-69
2024/01/08 05:26:36;;;;;;;6.88;1.70;;;;;;;;;;4968953;28;20051;-69
2024/01/08 05:29:03;;;;;;;6.25;1.83;;;;;;;;;;4967775;28;20148;-69
2024/01/08 05:31:30;;;;;;;8.63;1.90;;;;;;;;;;4965952;28;20426;-69
2024/01/08 05:33:59;;;;;;;6.22;2.00;;;;;;;;;;4972674;28;20047;-69
2024/01/08 05:36:26;;;;;;;10.10;1.90;;;;;;;;;;4972545;28;20093;-69
2024/01/08 05:38:53;;;;;;;3.90;1.67;;;;;;;;;;4955403;28;20051;-69
2024/01/08 05:41:24;;;;;;;2.88;1.23;;;;;;;;;;4971785;28;20051;-69
2024/01/08 05:43:51;;;;;;;5.05;1.67;;;;;;;;;;4956149;28;20067;-69
2024/01/08 05:46:18;;;;;;;6.63;1.83;;;;;;;;;;4956575;28;20055;-70
2024/01/08 05:48:45;;;;;;;3.70;1.67;;;;;;;;;;4966842;28;20047;-70
2024/01/08 05:51:14;;;;;;;7.00;1.80;;;;;;;;;;4973106;28;20178;-70
2024/01/08 05:53:41;;;;;;;7.72;2.10;;;;;;;;;;4972356;28;20061;-70
2024/01/08 05:56:09;;;;;;;3.40;1.40;;;;;;;;;;4967505;28;20214;-71
2024/01/08 05:58:36;;;;;;;4.75;1.60;;;;;;;;;;4955762;28;20410;-71
2024/01/08 06:01:03;;;;;;;3.97;1.65;;;;;;;;;;4970420;28;20054;-71
2024/01/08 06:03:30;;;;;;;4.70;1.80;;;;;;;;;;4947890;28;20050;-71
2024/01/08 06:05:58;;;;;;;6.85;1.50;;;;;;;;;;4969941;28;20113;-71
2024/01/08 06:08:26;;;;;;;8.18;1.88;;;;;;;;;;4974717;28;20109;-70
2024/01/08 06:10:54;;;;;;;7.60;2.03;;;;;;;;;;4970547;28;20051;-70
2024/01/08 06:13:21;;;;;;;4.03;1.50;;;;;;;;;;4972731;28;20051;-70
2024/01/08 06:15:48;;;;;;;3.70;1.50;;;;;;;;;;4970944;28;20043;-70
2024/01/08 06:18:15;;;;;;;4.45;1.60;;;;;;;;;;4972654;28;20406;-70
2024/01/08 06:20:43;;;;;;;5.63;2.05;;;;;;;;;;4972482;28;20057;-70
2024/01/08 06:23:10;;;;;;;4.55;1.75;;;;;;;;;;4965594;28;20069;-70
2024/01/08 06:25:38;;;;;;;5.00;2.05;;;;;;;;;;4969352;28;20042;-70
2024/01/08 06:28:07;;;;;;;6.53;1.88;;;;;;;;;;4968240;28;20424;-70
2024/01/08 06:30:34;;;;;;;3.95;1.95;;;;;;;;;;4968796;28;20125;-70
2024/01/08 06:33:01;;;;;;;4.93;1.80;;;;;;;;;;4965333;28;20398;-70
2024/01/08 06:35:29;;;;;;;4.30;2.00;;;;;;;;;;4968091;28;20062;-70
2024/01/08 06:37:56;;;;;;;3.72;1.90;;;;;;;;;;4954866;28;20057;-70
2024/01/08 06:40:23;;;;;;;5.93;2.25;;;;;;;;;;4972094;28;20054;-70
2024/01/08 06:42:52;;;;;;;4.85;1.75;;;;;;;;;;4964982;28;20046;-70
2024/01/08 06:45:19;;;;;;;6.82;2.15;;;;;;;;;;4966690;28;20051;-70
2024/01/08 06:47:47;;;;;;;5.90;1.95;;;;;;;;;;4970945;28;20050;-70
2024/01/08 06:50:14;;;;;;;5.25;1.73;;;;;;;;;;4971603;28;20059;-70
2024/01/08 06:52:41;;;;;;;5.65;2.30;;;;;;;;;;4954176;28;20054;-70
2024/01/08 06:55:09;;;;;;;4.82;2.10;;;;;;;;;;4972111;28;20149;-70
2024/01/08 06:57:36;;;;;;;5.88;1.92;;;;;;;;;;4953610;28;20057;-70
2024/01/08 07:00:07;;;;;;;6.53;2.10;;;;;;;;;;4971754;28;20563;-70
2024/01/08 07:02:35;;;;;;;5.00;2.00;;;;;;;;;;4966060;28;20507;-70
2024/01/08 07:05:02;;;;;;;8.00;2.38;;;;;;;;;;4966106;28;20486;-70
2024/01/08 07:07:29;;;;;;;6.75;2.55;;;;;;;;;;4956543;28;20062;-70
2024/01/08 07:09:56;;;;;;;5.15;2.10;;;;;;;;;;4970906;28;20050;-70
2024/01/08 07:12:24;;;;;;;3.67;1.80;;;;;;;;;;4966221;28;20050;-70
2024/01/08 07:14:52;;;;;;;5.35;1.83;;;;;;;;;;4952513;28;20058;-70
2024/01/08 07:17:21;;;;;;;6.57;1.98;;;;;;;;;;4970117;28;20047;-70
2024/01/08 07:19:48;;;;;;;8.35;1.80;;;;;;;;;;4971033;28;20055;-70
2024/01/08 07:22:15;;;;;;;5.43;1.85;;;;;;;;;;4968804;28;20132;-70
2024/01/08 07:24:42;;;;;;;7.43;2.28;;;;;;;;;;4953970;28;20054;-70
2024/01/08 07:27:10;;;;;;;6.93;1.98;;;;;;;;;;4954398;28;20078;-70
2024/01/08 07:29:37;;;;;;;4.65;1.95;;;;;;;;;;4967331;28;20138;-70
2024/01/08 07:32:05;;;;;;;3.83;2.08;;;;;;;;;;4971188;28;20080;-70
2024/01/08 07:34:33;;;;;;;12.02;3.63;;;;;;;;;;4953609;28;20043;-70
2024/01/08 07:37:00;;;;;;;7.63;2.15;;;;;;;;;;4970771;28;20402;-70
2024/01/08 07:39:28;;;;;;;8.07;2.28;;;;;;;;;;4949790;28;20161;-70
2024/01/08 07:41:55;;;;;;;3.88;1.75;;;;;;;;;;4970331;28;20061;-70
2024/01/08 07:44:22;;;;;;;6.43;1.90;;;;;;;;;;4953462;28;20054;-70
2024/01/08 07:46:50;;;;;;;5.53;1.77;;;;;;;;;;4952640;28;20058;-70
2024/01/08 07:49:17;;;;;;;4.65;1.90;;;;;;;;;;4950831;28;20469;-70
2024/01/08 07:51:46;;;;;;;4.80;1.80;;;;;;;;;;4953009;28;20479;-70
2024/01/08 07:54:13;;;;;;;9.57;2.45;;;;;;;;;;4970265;28;20059;-70
2024/01/08 07:56:40;;;;;;;8.10;2.20;;;;;;;;;;4969167;28;20062;-70
2024/01/08 07:59:07;;;;;;;7.28;2.40;;;;;;;;;;4954648;28;20466;-71
2024/01/08 08:01:35;;;;;;;16.13;4.72;;;;;;;;;;4953182;28;20066;-71
2024/01/08 08:04:02;;;;;;;9.35;3.50;;;;;;;;;;4968538;28;20540;-70
2024/01/08 08:06:30;;;;;;;7.78;3.17;;;;;;;;;;4969452;28;20054;-70
2024/01/08 08:08:59;;;;;;;10.25;2.55;;;;;;;;;;4953110;28;20053;-70
2024/01/08 08:11:27;;;;;;;9.45;2.88;;;;;;;;;;4968833;28;20550;-70
2024/01/08 08:13:55;;;;;;;5.47;2.58;;;;;;;;;;4952253;28;20105;-70
2024/01/08 08:16:22;;;;;;;6.35;1.98;;;;;;;;;;4949214;28;20051;-70
2024/01/08 08:18:49;;;;;;;7.47;2.25;;;;;;;;;;4968005;28;20093;-70
2024/01/08 08:21:17;;;;;;;4.25;1.77;;;;;;;;;;4970576;28;20050;-70
2024/01/08 08:23:44;;;;;;;6.43;1.88;;;;;;;;;;4950627;28;20051;-70
2024/01/08 08:26:13;;;;;;;10.48;1.88;;;;;;;;;;4952349;28;20046;-70
2024/01/08 08:28:40;;;;;;;5.22;1.90;;;;;;;;;;4951820;28;20054;-70
2024/01/08 08:31:07;;;;;;;7.68;2.03;;;;;;;;;;4969116;28;20046;-70
2024/01/08 08:33:35;;;;;;;8.95;1.90;;;;;;;;;;4949485;28;20110;-70
2024/01/08 08:36:02;;;;;;;7.85;1.65;;;;;;;;;;4968378;28;20589;-70
2024/01/08 08:38:29;;;;;;;7.28;2.08;;;;;;;;;;4973030;28;20047;-70
2024/01/08 08:40:57;;;;;;;8.13;2.05;;;;;;;;;;4969113;28;20126;-70
2024/01/08 08:43:26;;;;;;;4.90;1.55;;;;;;;;;;4969916;28;20054;-70
2024/01/08 08:45:53;;;;;;;6.18;1.88;;;;;;;;;;4953555;28;20486;-70
2024/01/08 08:48:20;;;;;;;7.13;1.70;;;;;;;;;;4953544;28;20058;-70
2024/01/08 08:50:48;;;;;;;7.72;1.60;;;;;;;;;;4952317;28;20059;-70
2024/01/08 08:53:15;;;;;;;7.50;2.17;;;;;;;;;;4969177;28;20414;-70
2024/01/08 08:55:42;;;;;;;9.50;2.20;;;;;;;;;;4962570;28;20050;-70
2024/01/08 08:58:10;;;;;;;12.13;2.17;;;;;;;;;;4951579;28;20051;-70
2024/01/08 09:00:38;;;;;;;6.80;1.73;;;;;;;;;;4969600;28;20046;-70
2024/01/08 09:03:06;;;;;;;7.20;2.30;;;;;;;;;;4966446;28;20179;-70
2024/01/08 09:05:33;;;;;;;6.18;1.60;;;;;;;;;;4969676;28;20390;-70
2024/01/08 09:08:01;;;;;;;6.72;1.77;;;;;;;;;;4968585;28;20047;-70
2024/01/08 09:10:28;;;;;;;4.68;1.40;;;;;;;;;;4952918;28;20049;-70
2024/01/08 09:12:55;;;;;;;6.00;1.75;;;;;;;;;;4972703;28;20055;-70
2024/01/08 09:15:22;;;;;;;5.22;1.75;;;;;;;;;;4956025;28;20065;-70
2024/01/08 09:17:51;;;;;;;4.70;1.77;;;;;;;;;;4972602;28;20482;-70
2024/01/08 09:20:18;;;;;;;5.97;1.92;;;;;;;;;;4973134;28;20509;-70
2024/01/08 09:22:46;;;;;;;7.35;1.77;;;;;;;;;;4973662;28;20054;-70
2024/01/08 09:25:13;;;;;;;11.48;1.90;;;;;;;;;;4964331;28;20410;-70
2024/01/08 09:27:42;;;;;;;4.00;1.70;;;;;;;;;;4973400;28;20054;-70
2024/01/08 09:30:10;;;;;;;6.03;1.80;;;;;;;;;;4971556;28;20395;-70
2024/01/08 09:32:37;;;;;;;6.78;1.75;;;;;;;;;;4971910;28;20511;-70
2024/01/08 09:35:06;;;;;;;3.10;1.60;;;;;;;;;;4972809;28;20051;-70
2024/01/08 09:37:33;;;;;;;5.10;1.80;;;;;;;;;;4972500;28;20411;-70
2024/01/08 09:40:01;;;;;;;5.47;1.60;;;;;;;;;;4972826;28;20058;-70
2024/01/08 09:42:28;;;;;;;4.95;1.50;;;;;;;;;;4955313;28;20145;-70
2024/01/08 09:44:56;;;;;;;9.43;1.83;;;;;;;;;;4955422;28;20146;-70
2024/01/08 09:47:24;;;;;;;5.22;1.38;;;;;;;;;;4967997;28;20513;-70
2024/01/08 09:49:51;;;;;;;5.90;1.35;;;;;;;;;;4970267;28;20050;-71
2024/01/08 09:52:20;;;;;;;6.22;1.35;;;;;;;;;;4975042;28;20061;-70
2024/01/08 09:54:47;;;;;;;3.95;1.17;;;;;;;;;;4967853;28;20057;-70
2024/01/08 09:57:14;;;;;;;3.85;1.38;;;;;;;;;;4973530;28;20054;-71
2024/01/08 09:59:42;;;;;;;4.18;1.10;;;;;;;;;;4969527;28;20053;-70
2024/01/08 10:02:16;;;;;;;5.03;1.20;;;;;;;;;;4972845;28;20046;-70
2024/01/08 10:04:43;;;;;;;7.03;1.30;;;;;;;;;;4960967;28;20055;-70
2024/01/08 10:07:13;;;;;;;5.35;1.30;;;;;;;;;;4973348;28;20050;-70
2024/01/08 10:09:41;;;;;;;4.20;1.33;;;;;;;;;;4970338;28;20493;-70
2024/01/08 10:12:09;;;;;;;4.35;1.20;;;;;;;;;;4971521;28;20604;-70
2024/01/08 10:14:37;;;;;;;6.75;1.13;;;;;;;;;;4956444;28;20121;-70
2024/01/08 10:17:04;;;;;;;5.00;1.08;;;;;;;;;;4971080;28;20054;-70
2024/01/08 10:19:32;;;;;;;5.68;1.40;;;;;;;;;;4971434;28;20090;-70
2024/01/08 10:22:07;;;;;;;6.30;1.38;;;;;;;;;;4957017;28;20047;-70
2024/01/08 10:24:34;;;;;;;3.58;1.20;;;;;;;;;;4953640;28;20506;-70
2024/01/08 10:27:03;;;;;;;3.03;1.10;;;;;;;;;;4968320;28;20498;-71
2024/01/08 10:29:31;;;;;;;4.72;1.20;;;;;;;;;;4969736;28;20118;-70
2024/01/08 10:31:58;;;;;;;3.13;1.10;;;;;;;;;;4972218;28;20056;-70
2024/01/08 10:34:26;;;;;;;6.63;1.05;;;;;;;;;;4954375;28;20055;-71
2024/01/08 10:36:53;;;;;;;5.07;1.35;;;;;;;;;;4949448;28;20062;-70
2024/01/08 10:39:22;;;;;;;6.35;1.75;;;;;;;;;;4970751;28;20191;-70
2024/01/08 10:41:50;;;;;;;6.05;1.92;;;;;;;;;;4969101;28;20452;-70
2024/01/08 10:44:21;;;;;;;5.07;1.40;;;;;;;;;;4971105;28;20047;-70
2024/01/08 10:46:56;;;;;;;5.20;1.27;;;;;;;;;;4971245;28;20047;-71
2024/01/08 10:49:25;;;;;;;6.07;1.55;;;;;;;;;;4955816;28;20047;-70
2024/01/08 10:51:53;;;;;;;3.97;1.25;;;;;;;;;;4953566;28;20055;-71
2024/01/08 10:54:20;;;;;;;4.25;1.20;;;;;;;;;;4954458;28;20062;-71
2024/01/08 10:56:50;;;;;;;3.40;1.30;;;;;;;;;;4970773;28;20109;-70
2024/01/08 10:59:22;;;;;;;2.63;1.23;;;;;;;;;;4969544;28;20109;-71
2024/01/08 11:01:51;;;;;;;5.13;1.48;;;;;;;;;;4970658;28;20138;-70
2024/01/08 11:04:18;;;;;;;3.88;1.10;;;;;;;;;;4964686;28;20057;-70
2024/01/08 11:06:47;;;;;;;3.65;1.27;;;;;;;;;;4970821;28;20055;-71
2024/01/08 11:09:25;;;;;;;3.08;1.23;;;;;;;;;;4969289;28;20129;-70
2024/01/08 11:11:52;;;;;;;2.85;1.25;;;;;;;;;;4969937;28;20081;-71
2024/01/08 11:14:21;;;;;;;7.30;2.17;;;;;;;;;;4970481;28;20129;-71
2024/01/08 11:16:50;;;;;;;5.25;1.42;;;;;;;;;;4953211;28;20450;-71
2024/01/08 11:19:27;;;;;;;3.58;1.27;;;;;;;;;;4971394;28;20056;-71
2024/01/08 11:22:10;;;;;;;2.90;1.27;;;;;;;;;;4969655;28;20055;-70
2024/01/08 11:24:38;;;;;;;3.40;1.30;;;;;;;;;;4954304;28;20113;-70
2024/01/08 11:27:05;;;;;;;2.90;1.20;;;;;;;;;;4970936;28;20294;-70
2024/01/08 11:29:35;;;;;;;6.38;1.60;;;;;;;;;;4951344;28;20082;-70
2024/01/08 11:32:22;;;;;;;2.42;0.98;;;;;;;;;;4968779;28;20520;-70
2024/01/08 11:34:57;;;;;;;3.78;1.23;;;;;;;;;;4969461;28;20086;-71
2024/01/08 11:37:34;;;;;;;4.35;1.33;;;;;;;;;;4954537;28;20085;-70
2024/01/08 11:40:03;;;;;;;3.17;1.48;;;;;;;;;;4970296;28;20089;-70
2024/01/08 11:42:31;;;;;;;3.30;1.00;;;;;;;;;;4955120;28;20509;-70
2024/01/08 11:45:01;;;;;;;3.85;1.42;;;;;;;;;;4970209;28;20097;-70
2024/01/08 11:47:29;;;;;;;2.72;1.33;;;;;;;;;;4969949;28;20130;-71
2024/01/08 11:49:56;;;;;;;3.10;1.30;;;;;;;;;;4975670;28;20146;-70
2024/01/08 11:52:23;;;;;;;3.85;1.63;;;;;;;;;;4970565;28;20077;-70
2024/01/08 11:54:52;;;;;;;9.38;1.67;;;;;;;;;;4969199;28;20069;-71
2024/01/08 11:57:20;;;;;;;11.20;2.17;;;;;;;;;;4968730;28;20062;-71
2024/01/08 11:59:48;;;;;;;3.53;1.40;;;;;;;;;;4970532;28;20069;-70
2024/01/08 12:02:18;;;;;;;4.95;1.77;;;;;;;;;;4969699;28;20553;-71
2024/01/08 12:04:53;;;;;;;4.88;1.48;;;;;;;;;;4952516;28;20057;-71
2024/01/08 12:07:21;;;;;;;4.50;1.50;;;;;;;;;;4970749;28;20051;-70
2024/01/08 12:09:49;;;;;;;3.17;1.52;;;;;;;;;;4950224;28;20043;-70
2024/01/08 12:12:17;;;;;;;6.20;1.80;;;;;;;;;;4963409;28;20055;-71
2024/01/08 12:14:44;;;;;;;3.60;1.70;;;;;;;;;;4969429;28;20409;-71
2024/01/08 12:17:12;;;;;;;5.32;1.52;;;;;;;;;;4955292;28;20058;-71
2024/01/08 12:19:42;;;;;;;4.57;1.80;;;;;;;;;;4970467;28;20046;-70
2024/01/08 12:22:13;;;;;;;5.47;1.27;;;;;;;;;;4970220;28;20077;-71
2024/01/08 12:24:41;;;;;;;5.47;1.58;;;;;;;;;;4959658;28;20046;-70
2024/01/08 12:27:09;;;;;;;6.32;1.90;;;;;;;;;;4963824;28;20057;-70
2024/01/08 12:29:39;;;;;;;7.57;1.90;;;;;;;;;;4962929;28;20065;-71
2024/01/08 12:32:07;;;;;;;4.20;1.70;;;;;;;;;;4969055;28;20154;-71
2024/01/08 12:34:37;;;;;;;3.25;1.30;;;;;;;;;;4969348;28;20057;-70
2024/01/08 12:37:05;;;;;;;3.13;1.50;;;;;;;;;;4961559;28;20047;-70
2024/01/08 12:39:34;;;;;;;7.82;2.03;;;;;;;;;;4964229;28;20457;-70
2024/01/08 12:42:02;;;;;;;4.45;1.63;;;;;;;;;;4963844;28;20050;-70
2024/01/08 12:44:30;;;;;;;3.60;1.42;;;;;;;;;;4953621;28;20520;-70
2024/01/08 12:46:58;;;;;;;4.88;1.55;;;;;;;;;;4962132;28;20050;-70
2024/01/08 12:49:25;;;;;;;6.20;2.00;;;;;;;;;;4967997;28;20090;-71
2024/01/08 12:51:53;;;;;;;4.10;1.67;;;;;;;;;;4949315;28;20066;-70
2024/01/08 12:54:22;;;;;;;3.80;1.52;;;;;;;;;;4968450;28;20047;-70
2024/01/08 12:56:49;;;;;;;4.93;2.22;;;;;;;;;;4969245;28;21296;-70
2024/01/08 12:59:17;;;;;;;4.78;1.52;;;;;;;;;;4951827;28;20521;-70
2024/01/08 13:01:45;;;;;;;8.73;1.95;;;;;;;;;;4969257;28;20055;-70
2024/01/08 13:04:14;;;;;;;4.35;1.20;;;;;;;;;;4958893;28;20122;-70
2024/01/08 13:06:41;;;;;;;3.58;1.48;;;;;;;;;;4969964;28;20086;-70
2024/01/08 13:09:09;;;;;;;5.32;1.10;;;;;;;;;;4968336;28;20049;-70
2024/01/08 13:11:37;;;;;;;4.40;1.23;;;;;;;;;;4967406;28;20055;-71
2024/01/08 13:14:05;;;;;;;6.18;1.30;;;;;;;;;;4950938;28;20066;-71
2024/01/08 13:16:32;;;;;;;3.85;1.38;;;;;;;;;;4968071;28;20414;-71
2024/01/08 13:18:59;;;;;;;3.38;1.38;;;;;;;;;;4948799;28;20506;-71
2024/01/08 13:21:27;;;;;;;5.97;1.40;;;;;;;;;;4951540;28;20057;-71
2024/01/08 13:23:54;;;;;;;4.45;1.27;;;;;;;;;;4965525;28;20050;-71
2024/01/08 13:26:23;;;;;;;3.95;1.23;;;;;;;;;;4965047;28;20051;-70
2024/01/08 13:28:52;;;;;;;4.53;1.30;;;;;;;;;;4967824;28;20062;-71
2024/01/08 13:31:21;;;;;;;2.72;1.10;;;;;;;;;;4952299;28;20070;-71
2024/01/08 13:33:49;;;;;;;2.97;1.30;;;;;;;;;;4968441;28;20046;-71
2024/01/08 13:36:16;;;;;;;3.80;1.50;;;;;;;;;;4951482;28;20051;-71
2024/01/08 13:38:43;;;;;;;6.78;1.58;;;;;;;;;;4970738;28;20242;-71
2024/01/08 13:41:11;;;;;;;3.60;1.52;;;;;;;;;;4968287;28;20070;-71
2024/01/08 13:43:38;;;;;;;4.53;1.48;;;;;;;;;;4969862;28;20062;-70
2024/01/08 13:46:09;;;;;;;3.72;1.40;;;;;;;;;;4967901;28;20046;-70
2024/01/08 13:48:36;;;;;;;4.20;1.50;;;;;;;;;;4965467;28;20089;-72
2024/01/08 13:51:04;;;;;;;6.00;1.83;;;;;;;;;;4965619;28;20050;-72
2024/01/08 13:53:31;;;;;;;4.22;1.80;;;;;;;;;;4968521;28;20046;-71
2024/01/08 13:55:59;;;;;;;3.28;1.20;;;;;;;;;;4971007;28;20051;-71
2024/01/08 13:58:26;;;;;;;4.50;1.83;;;;;;;;;;4964273;28;20142;-71
2024/01/08 14:00:57;;;;;;;4.65;1.48;;;;;;;;;;4970496;28;20138;-72
2024/01/08 14:03:26;;;;;;;5.43;1.73;;;;;;;;;;4963769;28;20058;-72
2024/01/08 14:05:53;;;;;;;4.25;1.70;;;;;;;;;;4971696;28;20058;-72
2024/01/08 14:08:19;;;;;;;4.93;1.60;;;;;;;;;;4955754;28;20059;-72
2024/01/08 14:10:47;;;;;;;6.03;1.67;;;;;;;;;;4954311;28;20050;-71
2024/01/08 14:13:14;;;;;;;3.22;1.48;;;;;;;;;;4972200;28;20062;-72
2024/01/08 14:15:42;;;;;;;4.90;1.52;;;;;;;;;;4971051;28;20059;-71
2024/01/08 14:18:09;;;;;;;4.55;1.50;;;;;;;;;;4966685;28;20059;-72
2024/01/08 14:20:38;;;;;;;2.80;1.30;;;;;;;;;;4954723;28;20086;-72
2024/01/08 14:23:05;;;;;;;4.93;1.60;;;;;;;;;;4953064;28;20062;-72
2024/01/08 14:25:32;;;;;;;3.90;1.75;;;;;;;;;;4971796;28;20047;-72
2024/01/08 14:28:00;;;;;;;5.32;1.80;;;;;;;;;;4950245;28;20483;-72
2024/01/08 14:30:28;;;;;;;4.88;1.83;;;;;;;;;;4955280;28;20513;-72
2024/01/08 14:32:56;;;;;;;3.13;1.40;;;;;;;;;;4966275;28;20062;-72
2024/01/08 14:35:23;;;;;;;3.83;1.40;;;;;;;;;;4977158;28;20046;-71
2024/01/08 14:37:52;;;;;;;3.40;1.35;;;;;;;;;;4970777;28;20053;-72
2024/01/08 14:40:27;;;;;;;4.60;1.60;;;;;;;;;;4954957;28;20051;-71
2024/01/08 14:42:54;;;;;;;5.57;1.45;;;;;;;;;;4967074;28;20095;-71
2024/01/08 14:45:21;;;;;;;2.63;1.50;;;;;;;;;;4970304;28;20047;-71
2024/01/08 14:47:49;;;;;;;3.70;1.48;;;;;;;;;;4969937;28;20043;-71